createdAt,value
2022-12-07T00:00:07.885Z,0.70
2022-12-07T00:02:56.595Z,0.50
2022-12-07T00:05:46.743Z,1.50
2022-12-07T00:08:36.605Z,1.10
2022-12-07T00:11:25.876Z,2.20
2022-12-07T00:14:17.300Z,2.00
2022-12-07T00:17:05.927Z,0.73
2022-12-07T00:19:54.603Z,1.10
2022-12-07T00:22:44.655Z,2.10
2022-12-07T00:25:33.332Z,1.80
2022-12-07T00:28:21.955Z,1.50
2022-12-07T00:31:12.337Z,0.77
2022-12-07T00:34:01.443Z,1.33
2022-12-07T00:36:50.834Z,0.63
2022-12-07T00:39:40.925Z,0.30
2022-12-07T00:42:29.564Z,0.40
2022-12-07T00:45:18.748Z,0.60
2022-12-07T00:48:07.416Z,0.50
2022-12-07T00:50:56.074Z,1.70
2022-12-07T00:53:44.727Z,0.63
2022-12-07T00:56:34.809Z,1.33
2022-12-07T00:59:23.599Z,0.20
2022-12-07T01:02:12.228Z,0.20
2022-12-07T01:05:00.884Z,0.13
2022-12-07T01:07:49.562Z,0.63
2022-12-07T01:10:38.250Z,0.90
2022-12-07T01:13:29.400Z,0.30
2022-12-07T01:16:19.544Z,0.20
2022-12-07T01:19:08.561Z,0.23
2022-12-07T01:21:57.199Z,0.17
2022-12-07T01:24:47.817Z,0.40
2022-12-07T01:27:36.550Z,0.10
2022-12-07T01:30:26.644Z,0.47
2022-12-07T01:33:15.313Z,1.13
2022-12-07T01:36:05.821Z,0.20
2022-12-07T01:38:58.506Z,0.23
2022-12-07T01:41:47.178Z,0.67
2022-12-07T01:44:50.647Z,0.57
2022-12-07T01:47:40.810Z,0.20
2022-12-07T01:50:32.885Z,0.20
2022-12-07T01:53:22.937Z,0.87
2022-12-07T01:56:15.674Z,0.70
2022-12-07T01:59:04.421Z,1.30
2022-12-07T02:01:53.692Z,0.60
2022-12-07T02:04:43.775Z,0.20
2022-12-07T02:07:35.214Z,0.50
2022-12-07T02:10:25.950Z,1.50
2022-12-07T02:13:17.848Z,0.20
2022-12-07T02:16:15.775Z,0.83
2022-12-07T02:19:38.069Z,0.30
2022-12-07T02:22:55.392Z,0.20
2022-12-07T02:26:03.513Z,1.27
2022-12-07T02:29:15.935Z,1.57
2022-12-07T02:32:10.684Z,0.20
2022-12-07T02:35:06.399Z,0.90
2022-12-07T02:38:04.561Z,1.50
2022-12-07T02:40:57.484Z,0.43
2022-12-07T02:43:50.040Z,0.73
2022-12-07T02:46:44.258Z,0.70
2022-12-07T02:49:33.679Z,1.03
2022-12-07T02:52:22.339Z,1.63
2022-12-07T02:55:11.204Z,0.60
2022-12-07T02:58:16.866Z,1.30
2022-12-07T03:01:13.950Z,1.10
2022-12-07T03:04:16.554Z,0.67
2022-12-07T03:07:13.597Z,0.47
2022-12-07T03:10:09.616Z,0.70
2022-12-07T03:13:07.393Z,0.87
2022-12-07T03:16:03.106Z,1.17
2022-12-07T03:18:55.855Z,0.73
2022-12-07T03:21:51.806Z,2.20
2022-12-07T03:24:44.236Z,0.83
2022-12-07T03:27:36.380Z,0.27
2022-12-07T03:30:26.938Z,0.50
2022-12-07T03:33:21.623Z,1.33
2022-12-07T03:36:16.430Z,2.37
2022-12-07T03:39:15.756Z,0.47
2022-12-07T03:42:07.513Z,0.27
2022-12-07T03:44:56.402Z,1.23
2022-12-07T03:47:50.371Z,0.23
2022-12-07T03:50:46.087Z,1.20
2022-12-07T03:53:40.274Z,0.30
2022-12-07T03:56:31.459Z,0.80
2022-12-07T03:59:21.286Z,0.40
2022-12-07T04:02:13.571Z,2.03
2022-12-07T04:05:02.395Z,1.33
2022-12-07T04:07:51.195Z,0.47
2022-12-07T04:10:39.897Z,0.50
2022-12-07T04:13:29.952Z,0.50
2022-12-07T04:16:18.607Z,0.17
2022-12-07T04:19:07.326Z,2.10
2022-12-07T04:21:56.290Z,1.03
2022-12-07T04:24:44.968Z,0.40
2022-12-07T04:27:33.646Z,0.53
2022-12-07T04:30:23.826Z,0.73
2022-12-07T04:33:12.502Z,0.67
2022-12-07T04:36:01.140Z,1.60
2022-12-07T04:38:50.047Z,0.63
2022-12-07T04:41:38.672Z,1.30
2022-12-07T04:44:28.373Z,1.00
2022-12-07T04:47:18.469Z,0.60
2022-12-07T04:50:08.380Z,0.93
2022-12-07T04:52:57.041Z,0.23
2022-12-07T04:55:46.694Z,0.73
2022-12-07T04:58:35.370Z,0.40
2022-12-07T05:01:25.255Z,0.30
2022-12-07T05:04:17.119Z,0.20
2022-12-07T05:07:05.802Z,1.30
2022-12-07T05:09:54.481Z,2.07
2022-12-07T05:12:43.182Z,0.87
2022-12-07T05:15:31.802Z,0.83
2022-12-07T05:18:20.505Z,0.90
2022-12-07T05:21:10.564Z,0.90
2022-12-07T05:23:59.436Z,0.97
2022-12-07T05:26:48.449Z,0.33
2022-12-07T05:29:37.145Z,0.50
2022-12-07T05:32:25.768Z,0.60
2022-12-07T05:35:14.429Z,2.03
2022-12-07T05:38:04.470Z,0.33
2022-12-07T05:40:53.133Z,0.60
2022-12-07T05:43:41.794Z,1.00
2022-12-07T05:46:30.466Z,0.97
2022-12-07T05:49:19.532Z,0.47
2022-12-07T05:52:08.199Z,1.07
2022-12-07T05:54:58.276Z,1.07
2022-12-07T05:58:06.926Z,2.00
2022-12-07T06:00:55.961Z,0.60
2022-12-07T06:03:45.186Z,0.67
2022-12-07T06:06:33.938Z,1.13
2022-12-07T06:09:24.347Z,0.60
2022-12-07T06:12:31.941Z,1.23
2022-12-07T06:15:20.757Z,1.57
2022-12-07T06:18:09.396Z,0.73
2022-12-07T06:20:58.016Z,1.10
2022-12-07T06:23:46.678Z,0.60
2022-12-07T06:26:35.346Z,0.63
2022-12-07T06:29:25.475Z,0.37
2022-12-07T06:32:14.201Z,1.50
2022-12-07T06:35:03.087Z,1.10
2022-12-07T06:37:51.691Z,0.40
2022-12-07T06:40:40.378Z,0.33
2022-12-07T06:43:29.045Z,0.80
2022-12-07T06:46:19.631Z,1.40
2022-12-07T06:49:08.483Z,1.30
2022-12-07T06:51:57.132Z,0.93
2022-12-07T06:54:46.173Z,1.13
2022-12-07T06:57:34.770Z,1.70
2022-12-07T07:00:24.028Z,0.97
2022-12-07T07:03:14.107Z,0.77
2022-12-07T07:06:02.790Z,0.80
2022-12-07T07:08:51.508Z,1.00
2022-12-07T07:11:40.239Z,1.60
2022-12-07T07:14:28.870Z,0.97
2022-12-07T07:17:17.528Z,1.50
2022-12-07T07:20:08.950Z,0.43
2022-12-07T07:22:57.975Z,0.80
2022-12-07T07:25:47.235Z,1.73
2022-12-07T07:28:35.894Z,0.53
2022-12-07T07:31:24.624Z,0.40
2022-12-07T07:34:13.388Z,0.97
2022-12-07T07:37:03.831Z,0.80
2022-12-07T07:39:52.472Z,0.70
2022-12-07T07:42:41.103Z,0.70
2022-12-07T07:45:30.219Z,0.10
2022-12-07T07:48:18.838Z,0.60
2022-12-07T07:51:08.784Z,0.33
2022-12-07T07:53:58.885Z,0.73
2022-12-07T07:56:47.593Z,0.97
2022-12-07T07:59:36.205Z,0.30
2022-12-07T08:02:25.003Z,0.20
2022-12-07T08:05:14.618Z,0.40
2022-12-07T08:08:03.521Z,0.43
2022-12-07T08:10:53.632Z,0.40
2022-12-07T08:13:42.274Z,1.20
2022-12-07T08:16:31.002Z,0.87
2022-12-07T08:19:19.722Z,1.77
2022-12-07T08:22:08.401Z,0.57
2022-12-07T08:24:57.031Z,0.20
2022-12-07T08:27:47.172Z,0.73
2022-12-07T08:30:35.899Z,1.07
2022-12-07T08:33:24.766Z,1.98
2022-12-07T08:36:14.468Z,0.80
2022-12-07T08:39:33.164Z,0.60
2022-12-07T08:42:11.790Z,0.70
2022-12-07T08:45:01.866Z,0.77
2022-12-07T08:47:54.942Z,0.73
2022-12-07T08:50:49.285Z,0.40
2022-12-07T08:53:39.987Z,0.53
2022-12-07T08:56:29.106Z,0.20
2022-12-07T08:59:19.932Z,1.03
2022-12-07T09:02:10.102Z,0.40
2022-12-07T09:04:59.057Z,0.87
2022-12-07T09:07:51.456Z,0.30
2022-12-07T09:10:40.126Z,0.83
2022-12-07T09:13:28.764Z,0.60
2022-12-07T09:16:17.537Z,1.10
2022-12-07T09:19:07.963Z,0.60
2022-12-07T09:21:56.614Z,1.27
2022-12-07T09:24:46.558Z,0.80
2022-12-07T09:27:35.298Z,0.30
2022-12-07T09:30:24.082Z,0.40
2022-12-07T09:33:12.813Z,0.50
2022-12-07T09:36:03.663Z,0.93
2022-12-07T09:38:52.302Z,0.23
2022-12-07T09:41:43.324Z,0.80
2022-12-07T09:44:32.286Z,0.20
2022-12-07T09:47:21.048Z,0.87
2022-12-07T09:50:16.960Z,0.30
2022-12-07T09:53:16.190Z,0.70
2022-12-07T09:56:05.636Z,0.20
2022-12-07T09:58:59.835Z,0.23
2022-12-07T10:01:50.906Z,0.40
2022-12-07T10:04:40.437Z,0.30
2022-12-07T10:07:29.153Z,1.60
2022-12-07T10:10:25.478Z,1.00
2022-12-07T10:13:15.463Z,0.30
2022-12-07T10:16:07.133Z,1.33
2022-12-07T10:18:56.778Z,0.60
2022-12-07T10:22:03.384Z,0.43
2022-12-07T10:24:52.037Z,0.97
2022-12-07T10:27:42.230Z,0.87
2022-12-07T10:30:31.922Z,0.70
2022-12-07T10:33:50.607Z,0.50
2022-12-07T10:36:40.767Z,0.67
2022-12-07T10:39:29.445Z,0.20
2022-12-07T10:42:22.734Z,0.37
2022-12-07T10:45:17.492Z,0.40
2022-12-07T10:48:14.463Z,1.40
2022-12-07T10:51:13.101Z,0.20
2022-12-07T10:54:13.295Z,0.20
2022-12-07T10:57:25.142Z,0.33
2022-12-07T11:00:20.393Z,1.43
2022-12-07T11:03:33.472Z,0.30
2022-12-07T11:06:31.653Z,0.10
2022-12-07T11:10:11.470Z,0.10
2022-12-07T11:13:27.966Z,0.23
2022-12-07T11:16:39.156Z,0.40
2022-12-07T11:19:42.861Z,0.20
2022-12-07T11:22:39.674Z,0.10
2022-12-07T11:25:35.001Z,0.20
2022-12-07T11:28:37.541Z,0.30
2022-12-07T11:31:36.140Z,0.60
2022-12-07T11:34:32.666Z,0.33
2022-12-07T11:37:26.115Z,0.63
2022-12-07T11:40:22.723Z,0.27
2022-12-07T11:43:20.582Z,0.40
2022-12-07T11:46:14.683Z,0.30
2022-12-07T11:49:12.607Z,0.77
2022-12-07T11:52:04.813Z,0.27
2022-12-07T11:54:55.134Z,0.20
2022-12-07T11:57:47.277Z,0.20
2022-12-07T12:00:37.069Z,0.77
2022-12-07T12:03:33.032Z,0.20
2022-12-07T12:06:23.778Z,0.93
2022-12-07T12:16:20.355Z,0.20
2022-12-07T13:40:18.049Z,0.27
2022-12-07T13:43:17.060Z,0.80
2022-12-07T13:46:15.481Z,0.30
2022-12-07T13:49:04.538Z,0.27
2022-12-07T13:51:54.358Z,0.30
2022-12-07T13:54:47.422Z,0.43
2022-12-07T13:57:38.247Z,0.50
2022-12-07T14:00:30.824Z,0.20
2022-12-07T14:04:03.335Z,0.20
2022-12-07T14:06:53.006Z,0.30
2022-12-07T14:09:42.007Z,0.47
2022-12-07T14:12:32.145Z,0.20
2022-12-07T14:15:24.265Z,0.10
2022-12-07T14:21:09.113Z,0.20
2022-12-07T14:24:18.620Z,0.10
2022-12-07T14:27:19.745Z,0.10
2022-12-07T14:30:17.688Z,0.20
2022-12-07T14:33:08.297Z,0.20
2022-12-07T14:35:59.214Z,0.20
2022-12-07T14:38:49.484Z,0.20
2022-12-07T14:41:53.177Z,0.20
2022-12-07T14:44:41.983Z,0.13
2022-12-07T14:53:56.979Z,0.20
2022-12-07T14:56:46.788Z,0.10
2022-12-07T14:59:38.070Z,0.20
2022-12-07T15:02:29.046Z,0.30
2022-12-07T15:05:19.199Z,0.10
2022-12-07T15:08:08.397Z,0.27
2022-12-07T15:10:58.376Z,0.10
2022-12-07T15:14:04.293Z,0.50
2022-12-07T15:17:08.297Z,0.23
2022-12-07T15:19:58.517Z,0.60
2022-12-07T15:22:47.214Z,1.40
2022-12-07T15:25:35.894Z,1.23
2022-12-07T15:28:25.956Z,0.57
2022-12-07T15:31:46.422Z,0.30
2022-12-07T15:34:23.758Z,0.30
2022-12-07T15:37:12.396Z,0.20
2022-12-07T15:40:07.171Z,0.20
2022-12-07T15:42:56.193Z,0.10
2022-12-07T15:45:45.115Z,0.20
2022-12-07T15:48:33.937Z,0.10
2022-12-07T15:51:24.672Z,0.20
2022-12-07T15:54:18.146Z,0.10
2022-12-07T15:57:06.668Z,0.27
2022-12-07T15:59:55.723Z,0.40
2022-12-07T16:02:45.811Z,1.53
2022-12-07T16:05:34.526Z,1.33
2022-12-07T16:08:23.245Z,0.20
2022-12-07T16:11:12.125Z,0.33
2022-12-07T16:14:00.721Z,0.50
2022-12-07T16:16:49.834Z,0.63
2022-12-07T16:19:40.354Z,0.10
2022-12-07T16:22:28.954Z,0.20
2022-12-07T16:25:17.734Z,1.13
2022-12-07T16:28:06.480Z,0.30
2022-12-07T16:31:03.279Z,0.30
2022-12-07T16:33:54.484Z,0.27
2022-12-07T16:39:53.044Z,0.20
2022-12-07T16:42:41.615Z,0.20
2022-12-07T16:45:30.223Z,0.20
2022-12-07T16:48:19.404Z,0.17
2022-12-07T16:51:10.283Z,0.10
2022-12-07T16:54:00.334Z,0.10
2022-12-07T16:56:49.084Z,0.53
2022-12-07T16:59:37.748Z,0.17
2022-12-07T17:02:26.365Z,0.50
2022-12-07T17:05:14.925Z,0.20
2022-12-07T17:08:04.195Z,0.17
2022-12-07T17:10:54.236Z,0.37
2022-12-07T17:14:00.346Z,0.33
2022-12-07T17:16:49.110Z,0.40
2022-12-07T17:19:37.877Z,0.20
2022-12-07T17:22:26.536Z,0.70
2022-12-07T17:25:15.157Z,0.87
2022-12-07T17:28:05.434Z,2.73
2022-12-07T17:30:53.984Z,2.20
2022-12-07T17:33:42.863Z,0.30
2022-12-07T17:36:33.513Z,0.30
2022-12-07T17:39:22.447Z,0.70
2022-12-07T17:42:28.782Z,0.20
2022-12-07T17:45:19.014Z,0.70
2022-12-07T17:48:07.749Z,0.20
2022-12-07T17:51:18.085Z,0.97
2022-12-07T17:54:06.749Z,1.00
2022-12-07T17:56:55.324Z,0.20
2022-12-07T17:59:43.975Z,0.87
2022-12-07T18:02:33.974Z,0.37
2022-12-07T18:05:22.665Z,0.30
2022-12-07T18:08:11.266Z,0.20
2022-12-07T18:11:00.844Z,1.27
2022-12-07T18:13:49.435Z,0.30
2022-12-07T18:16:38.113Z,0.40
2022-12-07T18:19:28.135Z,0.40
2022-12-07T18:22:16.757Z,0.30
2022-12-07T18:25:06.287Z,0.30
2022-12-07T18:27:55.046Z,0.23
2022-12-07T18:31:14.354Z,1.27
2022-12-07T18:34:04.219Z,0.20
2022-12-07T18:36:54.169Z,0.30
2022-12-07T18:39:42.696Z,0.43
2022-12-07T18:42:31.358Z,0.20
2022-12-07T18:45:20.097Z,0.30
2022-12-07T18:48:09.598Z,0.93
2022-12-07T18:51:03.259Z,0.27
2022-12-07T18:53:54.924Z,0.20
2022-12-07T18:56:43.545Z,0.30
2022-12-07T18:59:47.208Z,0.20
2022-12-07T19:02:35.950Z,0.20
2022-12-07T19:05:24.558Z,0.20
2022-12-07T19:08:13.189Z,0.20
2022-12-07T19:11:24.282Z,0.20
2022-12-07T19:14:13.356Z,0.40
2022-12-07T19:17:06.068Z,1.17
2022-12-07T19:19:54.820Z,0.97
2022-12-07T19:22:43.756Z,1.70
2022-12-07T19:25:32.331Z,1.77
2022-12-07T19:28:22.426Z,0.73
2022-12-07T19:31:12.416Z,1.00
2022-12-07T19:34:01.009Z,0.30
2022-12-07T19:36:49.866Z,0.20
2022-12-07T19:39:38.506Z,0.93
2022-12-07T19:42:27.156Z,0.73
2022-12-07T19:45:17.296Z,0.30
2022-12-07T19:48:05.996Z,1.17
2022-12-07T19:50:54.530Z,0.70
2022-12-07T19:53:43.206Z,0.40
2022-12-07T19:56:32.845Z,1.47
2022-12-07T19:59:23.036Z,0.73
2022-12-07T20:02:15.888Z,0.60
2022-12-07T20:05:06.598Z,0.30
2022-12-07T20:07:55.437Z,0.20
2022-12-07T20:10:44.075Z,0.63
2022-12-07T20:13:32.367Z,0.63
2022-12-07T20:16:21.625Z,1.03
2022-12-07T20:19:12.429Z,0.67
2022-12-07T20:22:01.008Z,0.97
2022-12-07T20:24:49.645Z,0.70
2022-12-07T20:27:38.268Z,1.33
2022-12-07T20:30:26.920Z,4.87
2022-12-07T20:33:15.577Z,10.63
2022-12-07T20:36:06.799Z,12.30
2022-12-07T20:38:55.475Z,7.93
2022-12-07T20:42:01.632Z,11.43
2022-12-07T20:44:50.538Z,3.00
2022-12-07T20:47:39.166Z,2.00
2022-12-07T20:50:27.816Z,0.93
2022-12-07T20:53:17.996Z,0.47
2022-12-07T20:56:07.156Z,0.77
2022-12-07T20:58:56.391Z,0.83
2022-12-07T21:01:45.621Z,1.93
2022-12-07T21:04:34.376Z,4.13
2022-12-07T21:07:22.936Z,1.23
2022-12-07T21:10:13.479Z,0.90
2022-12-07T21:13:02.017Z,0.57
2022-12-07T21:15:50.622Z,1.60
2022-12-07T21:18:40.477Z,1.23
2022-12-07T21:21:29.497Z,1.13
2022-12-07T21:24:18.066Z,0.20
2022-12-07T21:27:09.000Z,0.27
2022-12-07T21:29:57.588Z,0.53
2022-12-07T21:32:46.176Z,0.63
2022-12-07T21:35:34.793Z,0.30
2022-12-07T21:38:23.386Z,1.23
2022-12-07T21:41:13.835Z,0.83
2022-12-07T21:44:06.716Z,0.93
2022-12-07T21:46:55.335Z,1.93
2022-12-07T21:49:43.987Z,1.10
2022-12-07T21:52:32.578Z,0.60
2022-12-07T21:55:21.091Z,0.57
2022-12-07T21:58:09.716Z,0.73
2022-12-07T22:01:00.107Z,1.40
2022-12-07T22:03:49.244Z,1.30
2022-12-07T22:06:38.719Z,1.30
2022-12-07T22:09:27.810Z,1.57
2022-12-07T22:12:16.438Z,0.77
2022-12-07T22:15:07.193Z,0.43
2022-12-07T22:17:57.562Z,0.83
2022-12-07T22:20:46.158Z,0.30
2022-12-07T22:23:34.749Z,0.73
2022-12-07T22:26:24.736Z,0.60
2022-12-07T22:29:13.790Z,0.73
2022-12-07T22:32:18.545Z,0.90
2022-12-07T22:35:12.543Z,0.27
2022-12-07T22:38:03.372Z,0.57
2022-12-07T22:40:52.069Z,0.53
2022-12-07T22:43:41.019Z,0.70
2022-12-07T22:46:29.788Z,1.07
2022-12-07T22:49:18.438Z,1.10
2022-12-07T22:52:08.503Z,0.80
2022-12-07T22:54:57.103Z,0.80
2022-12-07T22:57:45.649Z,1.63
2022-12-07T23:00:34.228Z,0.20
2022-12-07T23:03:23.363Z,1.03
2022-12-07T23:06:15.730Z,2.10
2022-12-07T23:09:07.806Z,0.70
2022-12-07T23:12:13.839Z,0.57
2022-12-07T23:15:02.773Z,0.90
2022-12-07T23:17:51.638Z,0.53
2022-12-07T23:20:40.312Z,0.40
2022-12-07T23:23:28.928Z,0.87
2022-12-07T23:26:19.090Z,0.77
2022-12-07T23:29:07.690Z,0.83
2022-12-07T23:31:56.298Z,0.27
2022-12-07T23:34:45.209Z,0.70
2022-12-07T23:37:33.760Z,0.40
2022-12-07T23:40:22.370Z,1.33
2022-12-07T23:43:12.359Z,1.03
2022-12-07T23:46:01.179Z,0.30
2022-12-07T23:48:50.848Z,0.47
2022-12-07T23:51:39.829Z,0.30
2022-12-07T23:54:28.443Z,0.17
2022-12-07T23:57:16.999Z,1.43
